Time;durP1;ratioP1;P1;durP2;ratioP2;P2;SDS_P1;SDS_P2;PMS_P1;PMS_P2;Temp;Humidity;BMP_temperature;BMP_pressure;BME280_temperature;BME280_humidity;BME280_pressure;Samples;Min_cycle;Max_cycle;Signal;HPM_P1;HPM_P2
2022/06/29 00:00:04;;;;;;;0.22;0.15;;;;;;;;;;5017874;28;20034;-68
2022/06/29 00:02:30;;;;;;;1.35;0.90;;;;;;;;;;5017853;28;20042;-68
2022/06/29 00:04:56;;;;;;;0.10;0.10;;;;;;;;;;5017916;28;20042;-68
2022/06/29 00:07:22;;;;;;;0.10;0.10;;;;;;;;;;5018064;28;20049;-68
2022/06/29 00:09:49;;;;;;;0.10;0.10;;;;;;;;;;5017864;28;20551;-68
2022/06/29 00:12:15;;;;;;;0.10;0.10;;;;;;;;;;5017364;28;20052;-68
2022/06/29 00:14:44;;;;;;;0.10;0.10;;;;;;;;;;5017757;28;20495;-68
2022/06/29 00:17:10;;;;;;;0.10;0.10;;;;;;;;;;5017414;28;20053;-68
2022/06/29 00:19:37;;;;;;;0.10;0.10;;;;;;;;;;5017559;28;20133;-68
2022/06/29 00:22:03;;;;;;;0.10;0.10;;;;;;;;;;5017298;28;20354;-68
2022/06/29 00:24:30;;;;;;;0.10;0.10;;;;;;;;;;5017256;28;20551;-68
2022/06/29 00:26:56;;;;;;;0.17;0.17;;;;;;;;;;5017045;28;20096;-68
2022/06/29 00:29:22;;;;;;;0.10;0.10;;;;;;;;;;5017435;28;20121;-68
2022/06/29 00:31:49;;;;;;;0.32;0.32;;;;;;;;;;5017054;28;20087;-68
2022/06/29 00:34:15;;;;;;;0.20;0.20;;;;;;;;;;5017024;28;20120;-68
2022/06/29 00:36:41;;;;;;;0.20;0.20;;;;;;;;;;5016734;28;20050;-68
2022/06/29 00:39:07;;;;;;;0.10;0.10;;;;;;;;;;5017253;28;20049;-68
2022/06/29 00:41:38;;;;;;;0.20;0.10;;;;;;;;;;5016447;28;20393;-68
2022/06/29 00:44:04;;;;;;;0.10;0.10;;;;;;;;;;5017455;28;20081;-68
2022/06/29 00:46:30;;;;;;;0.10;0.10;;;;;;;;;;5016956;28;20050;-68
2022/06/29 00:48:56;;;;;;;0.10;0.10;;;;;;;;;;5017026;28;20527;-68
2022/06/29 00:51:22;;;;;;;0.20;0.20;;;;;;;;;;5016737;28;20046;-68
2022/06/29 00:53:49;;;;;;;0.10;0.10;;;;;;;;;;5016938;28;20493;-68
2022/06/29 00:56:17;;;;;;;0.20;0.20;;;;;;;;;;5015193;28;20468;-68
2022/06/29 00:58:45;;;;;;;0.10;0.10;;;;;;;;;;5016612;28;20042;-68
2022/06/29 01:01:13;;;;;;;0.57;0.40;;;;;;;;;;5016530;28;20033;-68
2022/06/29 01:03:39;;;;;;;0.20;0.20;;;;;;;;;;5016517;28;20048;-68
2022/06/29 01:06:06;;;;;;;0.10;0.10;;;;;;;;;;5016755;28;20109;-68
2022/06/29 01:08:33;;;;;;;0.13;0.13;;;;;;;;;;5016408;28;20135;-68
2022/06/29 01:10:59;;;;;;;0.10;0.10;;;;;;;;;;5016455;28;20038;-68
2022/06/29 01:13:25;;;;;;;0.10;0.10;;;;;;;;;;5016348;28;20503;-68
2022/06/29 01:15:51;;;;;;;0.10;0.10;;;;;;;;;;5016096;28;20517;-68
2022/06/29 01:18:17;;;;;;;0.10;0.10;;;;;;;;;;5016508;28;20050;-68
2022/06/29 01:20:43;;;;;;;0.10;0.10;;;;;;;;;;5016247;28;20046;-68
2022/06/29 01:23:09;;;;;;;0.32;0.30;;;;;;;;;;5016413;28;20046;-68
2022/06/29 01:25:36;;;;;;;0.08;0.08;;;;;;;;;;5016550;28;20041;-68
2022/06/29 01:28:02;;;;;;;0.10;0.10;;;;;;;;;;5016475;28;20046;-68
2022/06/29 01:30:28;;;;;;;0.10;0.10;;;;;;;;;;5016020;28;20037;-68
2022/06/29 01:32:54;;;;;;;0.10;0.10;;;;;;;;;;5015998;28;20128;-68
2022/06/29 01:35:22;;;;;;;0.10;0.10;;;;;;;;;;5016720;28;20068;-68
2022/06/29 01:37:49;;;;;;;0.10;0.10;;;;;;;;;;5016060;28;20041;-68
2022/06/29 01:40:15;;;;;;;0.10;0.10;;;;;;;;;;5015873;28;20042;-68
2022/06/29 01:42:41;;;;;;;0.10;0.10;;;;;;;;;;5015900;28;20124;-68
2022/06/29 01:45:08;;;;;;;0.10;0.10;;;;;;;;;;5015281;28;20045;-68
2022/06/29 01:47:34;;;;;;;0.10;0.10;;;;;;;;;;5016118;28;20050;-68
2022/06/29 01:50:01;;;;;;;0.10;0.10;;;;;;;;;;5015958;28;20081;-68
2022/06/29 01:52:27;;;;;;;0.10;0.10;;;;;;;;;;5016005;28;20038;-68
2022/06/29 01:54:53;;;;;;;0.10;0.10;;;;;;;;;;5016166;28;20129;-68
2022/06/29 01:57:19;;;;;;;0.20;0.20;;;;;;;;;;5015134;28;20542;-68
2022/06/29 01:59:45;;;;;;;0.10;0.10;;;;;;;;;;5015527;28;20041;-68
2022/06/29 02:02:11;;;;;;;0.50;0.30;;;;;;;;;;5015701;28;20072;-68
2022/06/29 02:04:37;;;;;;;0.20;0.20;;;;;;;;;;5015777;28;20038;-68
2022/06/29 02:07:04;;;;;;;0.28;0.28;;;;;;;;;;5015739;28;20045;-68
2022/06/29 02:09:30;;;;;;;0.10;0.10;;;;;;;;;;5015394;28;20037;-68
2022/06/29 02:11:56;;;;;;;0.10;0.10;;;;;;;;;;5015720;28;20125;-68
2022/06/29 02:14:22;;;;;;;0.10;0.10;;;;;;;;;;5015568;28;20041;-68
2022/06/29 02:16:48;;;;;;;0.10;0.10;;;;;;;;;;5015493;28;20485;-68
2022/06/29 02:19:14;;;;;;;0.10;0.10;;;;;;;;;;5015495;28;20473;-68
2022/06/29 02:21:40;;;;;;;0.10;0.10;;;;;;;;;;5015437;28;20576;-68
2022/06/29 02:24:06;;;;;;;0.10;0.10;;;;;;;;;;5015664;28;20042;-68
2022/06/29 02:26:33;;;;;;;0.00;0.00;;;;;;;;;;5015454;28;20492;-68
2022/06/29 02:28:59;;;;;;;0.10;0.10;;;;;;;;;;5014776;28;20034;-68
2022/06/29 02:36:55;;;;;;;0.10;0.10;;;;;;;;;;5014305;28;20064;-68
2022/06/29 02:39:21;;;;;;;0.10;0.10;;;;;;;;;;5014912;28;20241;-68
2022/06/29 02:41:47;;;;;;;0.20;0.20;;;;;;;;;;5014417;28;20136;-68
2022/06/29 02:44:13;;;;;;;0.10;0.10;;;;;;;;;;5014735;28;20048;-68
2022/06/29 02:46:39;;;;;;;0.10;0.10;;;;;;;;;;5015210;28;20111;-68
2022/06/29 02:49:05;;;;;;;0.10;0.10;;;;;;;;;;5014811;28;20046;-68
2022/06/29 02:51:31;;;;;;;0.10;0.10;;;;;;;;;;5014846;28;20129;-68
2022/06/29 02:53:57;;;;;;;0.10;0.10;;;;;;;;;;5014434;28;20451;-68
2022/06/29 02:56:24;;;;;;;0.10;0.10;;;;;;;;;;5014932;28;20057;-68
2022/06/29 02:58:50;;;;;;;0.10;0.10;;;;;;;;;;5018131;28;20095;-68
2022/06/29 03:01:16;;;;;;;0.10;0.10;;;;;;;;;;5019249;28;20038;-68
2022/06/29 03:03:42;;;;;;;0.10;0.10;;;;;;;;;;5018759;28;20038;-68
2022/06/29 03:06:08;;;;;;;0.10;0.10;;;;;;;;;;5018378;28;20527;-67
2022/06/29 03:08:34;;;;;;;0.10;0.10;;;;;;;;;;5018874;28;20042;-68
2022/06/29 03:11:00;;;;;;;0.10;0.10;;;;;;;;;;5018454;28;20054;-68
2022/06/29 03:13:26;;;;;;;0.00;0.00;;;;;;;;;;5018588;28;20042;-68
2022/06/29 03:15:52;;;;;;;0.10;0.10;;;;;;;;;;5018887;28;20057;-68
2022/06/29 03:18:19;;;;;;;0.10;0.10;;;;;;;;;;5018511;28;20103;-67
2022/06/29 03:20:45;;;;;;;0.10;0.10;;;;;;;;;;5018490;28;20062;-68
2022/06/29 03:23:11;;;;;;;0.10;0.10;;;;;;;;;;5018121;28;20117;-67
2022/06/29 03:25:37;;;;;;;0.10;0.10;;;;;;;;;;5018075;28;20132;-68
2022/06/29 03:28:03;;;;;;;0.10;0.10;;;;;;;;;;5017782;28;20058;-68
2022/06/29 03:30:29;;;;;;;0.10;0.10;;;;;;;;;;5018277;28;20157;-67
2022/06/29 03:32:56;;;;;;;0.10;0.10;;;;;;;;;;5017952;28;20042;-67
2022/06/29 03:35:22;;;;;;;0.10;0.10;;;;;;;;;;5018512;28;20053;-67
2022/06/29 03:37:50;;;;;;;0.10;0.10;;;;;;;;;;5017825;28;20146;-67
2022/06/29 03:40:16;;;;;;;0.47;0.43;;;;;;;;;;5018021;28;20138;-67
2022/06/29 03:42:42;;;;;;;0.10;0.10;;;;;;;;;;5017896;28;20045;-67
2022/06/29 03:45:08;;;;;;;0.10;0.10;;;;;;;;;;5018021;28;20088;-67
2022/06/29 03:47:35;;;;;;;0.13;0.13;;;;;;;;;;5017790;28;20085;-67
2022/06/29 03:50:01;;;;;;;0.10;0.10;;;;;;;;;;5018183;28;20065;-67
2022/06/29 03:52:27;;;;;;;0.10;0.10;;;;;;;;;;5017945;28;20073;-67
2022/06/29 03:54:53;;;;;;;0.10;0.10;;;;;;;;;;5017670;28;20038;-67
2022/06/29 03:57:19;;;;;;;0.10;0.10;;;;;;;;;;5017670;28;20103;-67
2022/06/29 03:59:45;;;;;;;0.10;0.10;;;;;;;;;;5017764;28;20488;-67
2022/06/29 04:02:11;;;;;;;0.10;0.10;;;;;;;;;;5032640;28;20046;-67
2022/06/29 04:04:38;;;;;;;0.10;0.10;;;;;;;;;;5037156;28;20040;-68
2022/06/29 04:07:04;;;;;;;0.10;0.10;;;;;;;;;;5037762;28;20045;-68
2022/06/29 04:09:30;;;;;;;0.10;0.10;;;;;;;;;;5027212;28;20468;-68
2022/06/29 04:11:56;;;;;;;0.10;0.10;;;;;;;;;;5016072;28;20077;-68
2022/06/29 04:14:26;;;;;;;0.10;0.10;;;;;;;;;;5017767;28;20087;-68
2022/06/29 04:16:53;;;;;;;0.13;0.13;;;;;;;;;;5017578;28;20057;-67
2022/06/29 04:19:19;;;;;;;0.25;0.13;;;;;;;;;;5016164;28;20104;-68
2022/06/29 04:21:46;;;;;;;0.10;0.10;;;;;;;;;;5017636;28;20045;-68
2022/06/29 04:24:13;;;;;;;0.10;0.10;;;;;;;;;;5007245;28;20035;-68
2022/06/29 04:26:39;;;;;;;0.20;0.20;;;;;;;;;;4997426;28;20058;-68
2022/06/29 04:29:05;;;;;;;0.10;0.10;;;;;;;;;;4997747;28;20125;-68
2022/06/29 04:31:32;;;;;;;0.32;0.32;;;;;;;;;;4997775;28;20144;-68
2022/06/29 04:33:59;;;;;;;0.10;0.10;;;;;;;;;;4998124;28;20088;-68
2022/06/29 04:36:25;;;;;;;0.10;0.10;;;;;;;;;;5006364;28;20095;-67
2022/06/29 04:38:51;;;;;;;3.22;0.20;;;;;;;;;;5015208;28;20042;-67
2022/06/29 04:41:19;;;;;;;0.10;0.10;;;;;;;;;;5014378;28;20041;-67
2022/06/29 04:43:46;;;;;;;0.10;0.10;;;;;;;;;;5014262;28;20033;-68
2022/06/29 04:46:21;;;;;;;0.10;0.10;;;;;;;;;;5016025;28;20045;-68
2022/06/29 04:48:49;;;;;;;0.10;0.10;;;;;;;;;;5015903;28;20064;-68
2022/06/29 04:51:18;;;;;;;0.38;0.22;;;;;;;;;;5015901;28;20048;-68
2022/06/29 04:53:47;;;;;;;0.10;0.10;;;;;;;;;;5015918;28;20040;-68
2022/06/29 04:56:14;;;;;;;0.10;0.10;;;;;;;;;;5015778;28;20489;-68
2022/06/29 04:58:40;;;;;;;0.10;0.10;;;;;;;;;;5016318;28;20038;-67
2022/06/29 05:01:06;;;;;;;0.10;0.10;;;;;;;;;;5016534;28;20049;-69
2022/06/29 05:03:32;;;;;;;0.10;0.10;;;;;;;;;;5015839;28;20038;-69
2022/06/29 05:06:01;;;;;;;0.03;0.03;;;;;;;;;;5016296;28;20068;-70
2022/06/29 05:08:27;;;;;;;0.20;0.20;;;;;;;;;;5016412;28;20041;-69
2022/06/29 05:10:53;;;;;;;0.10;0.10;;;;;;;;;;5016231;28;20524;-69
2022/06/29 05:13:19;;;;;;;0.10;0.10;;;;;;;;;;5016640;28;20091;-69
2022/06/29 05:15:46;;;;;;;0.20;0.20;;;;;;;;;;5015883;28;20124;-68
2022/06/29 05:18:12;;;;;;;0.10;0.10;;;;;;;;;;5015962;28;20440;-68
2022/06/29 05:20:38;;;;;;;0.10;0.10;;;;;;;;;;5015355;28;20053;-69
2022/06/29 05:23:04;;;;;;;0.10;0.10;;;;;;;;;;5016188;28;20030;-68
2022/06/29 05:25:31;;;;;;;0.10;0.10;;;;;;;;;;5015160;28;20438;-68
2022/06/29 05:27:57;;;;;;;0.20;0.20;;;;;;;;;;5016211;28;20084;-69
2022/06/29 05:30:23;;;;;;;0.10;0.10;;;;;;;;;;5006355;28;20038;-70
2022/06/29 05:32:50;;;;;;;0.13;0.13;;;;;;;;;;5006883;28;20038;-70
2022/06/29 05:35:17;;;;;;;0.10;0.10;;;;;;;;;;5003509;28;20416;-69
2022/06/29 05:37:43;;;;;;;0.20;0.20;;;;;;;;;;5004863;28;20042;-70
2022/06/29 05:40:09;;;;;;;0.10;0.10;;;;;;;;;;5015471;28;20037;-70
2022/06/29 05:42:35;;;;;;;0.30;0.30;;;;;;;;;;5015262;28;20069;-70
2022/06/29 05:45:01;;;;;;;0.40;0.40;;;;;;;;;;5009123;28;20065;-70
2022/06/29 05:47:27;;;;;;;0.20;0.20;;;;;;;;;;5005948;28;20045;-70
2022/06/29 05:49:57;;;;;;;0.20;0.20;;;;;;;;;;5005763;28;20049;-70
2022/06/29 05:52:24;;;;;;;0.22;0.22;;;;;;;;;;5004344;28;20068;-70
2022/06/29 05:54:50;;;;;;;0.30;0.30;;;;;;;;;;5005391;28;20504;-70
2022/06/29 05:57:17;;;;;;;0.20;0.20;;;;;;;;;;4998318;28;20050;-70
2022/06/29 05:59:43;;;;;;;0.30;0.30;;;;;;;;;;4996019;28;20042;-70
2022/06/29 06:02:09;;;;;;;0.25;0.25;;;;;;;;;;4996140;28;20078;-70
2022/06/29 06:04:36;;;;;;;0.20;0.20;;;;;;;;;;4996341;28;20512;-71
2022/06/29 06:07:03;;;;;;;0.22;0.22;;;;;;;;;;4995731;28;20056;-70
2022/06/29 06:09:32;;;;;;;0.40;0.40;;;;;;;;;;5009733;28;20088;-71
2022/06/29 06:11:58;;;;;;;0.20;0.20;;;;;;;;;;5014823;28;20570;-71
2022/06/29 06:14:24;;;;;;;0.20;0.20;;;;;;;;;;5014895;28;20481;-70
2022/06/29 06:16:50;;;;;;;0.20;0.20;;;;;;;;;;5014544;28;20049;-70
2022/06/29 06:19:17;;;;;;;0.20;0.20;;;;;;;;;;5014674;28;20049;-70
2022/06/29 06:21:43;;;;;;;0.20;0.20;;;;;;;;;;5015073;28;20065;-70
2022/06/29 06:24:09;;;;;;;0.20;0.20;;;;;;;;;;5014851;28;20046;-70
2022/06/29 06:26:36;;;;;;;0.38;0.20;;;;;;;;;;5014577;28;20137;-71
2022/06/29 06:29:02;;;;;;;0.30;0.30;;;;;;;;;;5015054;28;20041;-70
2022/06/29 06:31:28;;;;;;;0.40;0.40;;;;;;;;;;5014704;28;20091;-71
2022/06/29 06:33:54;;;;;;;0.25;0.25;;;;;;;;;;5014036;28;20397;-71
2022/06/29 06:36:20;;;;;;;0.20;0.20;;;;;;;;;;5015346;28;20058;-71
2022/06/29 06:38:46;;;;;;;0.20;0.20;;;;;;;;;;5015218;28;20033;-71
2022/06/29 06:41:22;;;;;;;0.20;0.20;;;;;;;;;;5014860;28;20042;-71
2022/06/29 06:43:52;;;;;;;0.20;0.20;;;;;;;;;;5014914;28;20046;-71
2022/06/29 06:46:18;;;;;;;0.20;0.20;;;;;;;;;;5014765;28;20054;-71
2022/06/29 06:48:44;;;;;;;0.20;0.20;;;;;;;;;;5014755;28;20029;-71
2022/06/29 06:51:11;;;;;;;0.30;0.30;;;;;;;;;;5014761;28;20042;-71
2022/06/29 06:53:38;;;;;;;0.60;0.60;;;;;;;;;;5014454;28;20061;-71
2022/06/29 06:56:04;;;;;;;0.30;0.30;;;;;;;;;;5014781;28;20053;-71
2022/06/29 06:58:30;;;;;;;0.20;0.20;;;;;;;;;;5014740;28;20125;-71
2022/06/29 07:00:56;;;;;;;0.30;0.30;;;;;;;;;;5015022;28;20042;-71
2022/06/29 07:03:22;;;;;;;0.65;0.65;;;;;;;;;;5014702;28;20045;-71
2022/06/29 07:05:49;;;;;;;0.30;0.30;;;;;;;;;;5015227;28;20041;-71
2022/06/29 07:08:15;;;;;;;0.20;0.20;;;;;;;;;;5014303;28;20401;-71
2022/06/29 07:10:41;;;;;;;0.20;0.20;;;;;;;;;;5014495;28;20033;-70
2022/06/29 07:13:07;;;;;;;0.20;0.20;;;;;;;;;;5014307;28;20053;-71
2022/06/29 07:15:33;;;;;;;0.30;0.30;;;;;;;;;;5014698;28;20046;-71
2022/06/29 07:17:59;;;;;;;0.30;0.30;;;;;;;;;;5012401;28;20041;-71
2022/06/29 07:20:28;;;;;;;0.20;0.20;;;;;;;;;;5015302;28;20554;-71
2022/06/29 07:22:54;;;;;;;0.20;0.20;;;;;;;;;;5024642;28;20041;-71
2022/06/29 07:25:21;;;;;;;0.20;0.20;;;;;;;;;;5013689;28;20116;-70
2022/06/29 07:27:47;;;;;;;0.20;0.20;;;;;;;;;;5019041;28;20064;-70
2022/06/29 07:30:13;;;;;;;0.20;0.20;;;;;;;;;;5015754;28;20137;-70
2022/06/29 07:32:39;;;;;;;0.28;0.28;;;;;;;;;;5025303;28;20063;-70
2022/06/29 07:35:06;;;;;;;0.20;0.20;;;;;;;;;;5014246;28;20076;-70
2022/06/29 07:37:32;;;;;;;0.20;0.20;;;;;;;;;;5026279;28;20049;-70
2022/06/29 07:39:59;;;;;;;0.20;0.20;;;;;;;;;;5014440;28;20038;-70
2022/06/29 07:42:25;;;;;;;0.30;0.30;;;;;;;;;;5020495;28;20484;-70
2022/06/29 07:44:51;;;;;;;0.30;0.30;;;;;;;;;;5037636;28;20041;-70
2022/06/29 07:47:17;;;;;;;0.10;0.10;;;;;;;;;;5031867;28;20050;-70
2022/06/29 07:49:43;;;;;;;0.20;0.20;;;;;;;;;;5030726;28;20072;-70
2022/06/29 07:52:10;;;;;;;0.20;0.20;;;;;;;;;;5037668;28;20094;-70
2022/06/29 07:54:36;;;;;;;0.10;0.10;;;;;;;;;;5018080;28;20489;-70
2022/06/29 07:57:02;;;;;;;0.10;0.10;;;;;;;;;;5018114;28;20054;-70
2022/06/29 07:59:28;;;;;;;0.20;0.20;;;;;;;;;;5020059;28;20037;-70
2022/06/29 08:01:54;;;;;;;0.15;0.15;;;;;;;;;;5028374;28;20052;-70
2022/06/29 08:04:20;;;;;;;1.67;0.40;;;;;;;;;;5018665;28;20034;-70
2022/06/29 08:06:46;;;;;;;0.10;0.10;;;;;;;;;;5028682;28;20056;-70
2022/06/29 08:09:12;;;;;;;0.30;0.30;;;;;;;;;;5018582;28;20048;-70
2022/06/29 08:11:39;;;;;;;0.30;0.30;;;;;;;;;;5017499;28;20501;-70
2022/06/29 08:14:05;;;;;;;0.28;0.28;;;;;;;;;;5013342;28;20096;-70
2022/06/29 08:16:31;;;;;;;0.10;0.10;;;;;;;;;;5015494;28;20125;-70
2022/06/29 08:18:57;;;;;;;0.10;0.10;;;;;;;;;;5016068;28;20486;-70
2022/06/29 08:21:23;;;;;;;0.28;0.28;;;;;;;;;;5015575;28;20080;-70
2022/06/29 08:23:49;;;;;;;0.20;0.20;;;;;;;;;;5003677;28;20061;-70
2022/06/29 08:26:16;;;;;;;0.20;0.20;;;;;;;;;;4996363;28;20116;-70
2022/06/29 08:28:42;;;;;;;0.13;0.13;;;;;;;;;;5016419;28;20042;-70
2022/06/29 08:31:08;;;;;;;0.20;0.20;;;;;;;;;;5016639;28;20095;-70
2022/06/29 08:33:34;;;;;;;0.20;0.20;;;;;;;;;;5016549;28;20042;-70
2022/06/29 08:36:00;;;;;;;0.20;0.20;;;;;;;;;;5016734;28;20050;-70
2022/06/29 08:38:27;;;;;;;0.30;0.30;;;;;;;;;;5017110;28;20072;-70
2022/06/29 08:40:54;;;;;;;0.20;0.20;;;;;;;;;;5015620;28;20481;-70
2022/06/29 08:43:21;;;;;;;0.20;0.20;;;;;;;;;;5014116;28;20046;-70
2022/06/29 08:45:48;;;;;;;0.20;0.20;;;;;;;;;;5016417;28;20060;-71
2022/06/29 08:48:15;;;;;;;0.13;0.13;;;;;;;;;;5015748;28;20129;-70
2022/06/29 08:50:43;;;;;;;0.20;0.20;;;;;;;;;;5016519;28;20042;-70
2022/06/29 08:53:11;;;;;;;0.20;0.20;;;;;;;;;;5016556;28;20044;-71
2022/06/29 08:55:41;;;;;;;0.20;0.20;;;;;;;;;;5013186;28;20448;-70
2022/06/29 08:58:07;;;;;;;0.15;0.15;;;;;;;;;;5015774;28;20045;-70
2022/06/29 09:00:36;;;;;;;0.10;0.10;;;;;;;;;;5028328;28;20048;-70
2022/06/29 09:03:04;;;;;;;0.13;0.13;;;;;;;;;;5016505;28;20092;-70
2022/06/29 09:05:30;;;;;;;0.10;0.10;;;;;;;;;;5025303;28;20159;-70
2022/06/29 09:07:56;;;;;;;0.10;0.10;;;;;;;;;;5036595;28;20550;-69
2022/06/29 09:10:24;;;;;;;0.30;0.30;;;;;;;;;;5026594;28;20084;-70
2022/06/29 09:12:57;;;;;;;0.10;0.10;;;;;;;;;;5015938;28;20038;-70
2022/06/29 09:15:33;;;;;;;0.10;0.10;;;;;;;;;;5023495;28;20048;-70
2022/06/29 09:18:00;;;;;;;0.10;0.10;;;;;;;;;;5032726;28;20054;-70
2022/06/29 09:20:39;;;;;;;0.13;0.13;;;;;;;;;;5017567;28;20069;-70
2022/06/29 09:23:08;;;;;;;0.20;0.20;;;;;;;;;;5002142;28;20037;-70
2022/06/29 09:25:39;;;;;;;0.10;0.10;;;;;;;;;;5023081;28;20056;-70
2022/06/29 09:28:17;;;;;;;0.10;0.10;;;;;;;;;;5021582;28;20134;-70
2022/06/29 09:30:44;;;;;;;0.28;0.28;;;;;;;;;;5028465;28;20046;-70
2022/06/29 09:33:11;;;;;;;0.10;0.10;;;;;;;;;;5029101;28;20037;-70
2022/06/29 09:35:38;;;;;;;0.10;0.10;;;;;;;;;;5015062;28;20050;-70
2022/06/29 09:38:34;;;;;;;0.30;0.30;;;;;;;;;;5014595;28;20046;-70
2022/06/29 09:41:07;;;;;;;0.10;0.10;;;;;;;;;;4998193;28;20071;-70
2022/06/29 09:43:35;;;;;;;0.15;0.15;;;;;;;;;;5017462;28;20034;-70
2022/06/29 09:46:02;;;;;;;0.20;0.20;;;;;;;;;;5022270;28;20080;-70
2022/06/29 09:48:29;;;;;;;0.20;0.20;;;;;;;;;;5014533;28;20042;-70
2022/06/29 09:50:55;;;;;;;1.80;0.60;;;;;;;;;;5018534;28;20037;-70
2022/06/29 09:53:39;;;;;;;0.10;0.10;;;;;;;;;;5028222;28;20493;-70
2022/06/29 09:56:06;;;;;;;0.10;0.10;;;;;;;;;;5027325;28;20084;-70
2022/06/29 09:58:38;;;;;;;1.10;0.40;;;;;;;;;;5017909;28;20046;-70
2022/06/29 10:03:53;;;;;;;0.10;0.10;;;;;;;;;;5017848;28;20099;-70
2022/06/29 10:06:19;;;;;;;0.10;0.10;;;;;;;;;;5015744;28;20050;-70
2022/06/29 10:08:46;;;;;;;0.20;0.20;;;;;;;;;;5016705;28;20452;-70
2022/06/29 10:14:40;;;;;;;0.10;0.10;;;;;;;;;;5013279;28;20037;-70
2022/06/29 10:17:13;;;;;;;0.20;0.20;;;;;;;;;;5004953;28;20053;-70
2022/06/29 10:19:54;;;;;;;0.10;0.10;;;;;;;;;;5025232;28;20129;-70
2022/06/29 10:22:20;;;;;;;0.28;0.28;;;;;;;;;;5013676;28;20041;-70
2022/06/29 10:25:03;;;;;;;0.20;0.20;;;;;;;;;;5021032;28;20045;-70
2022/06/29 10:27:30;;;;;;;0.10;0.10;;;;;;;;;;5016809;28;20532;-70
2022/06/29 10:30:14;;;;;;;0.10;0.10;;;;;;;;;;5027133;28;20116;-72
2022/06/29 10:32:40;;;;;;;0.10;0.10;;;;;;;;;;5015305;28;20045;-72
2022/06/29 10:35:07;;;;;;;0.35;0.35;;;;;;;;;;5015980;28;20041;-71
2022/06/29 10:37:33;;;;;;;0.10;0.10;;;;;;;;;;5015055;28;20124;-71
2022/06/29 10:40:04;;;;;;;0.10;0.10;;;;;;;;;;5032060;28;20044;-71
2022/06/29 10:45:18;;;;;;;0.10;0.10;;;;;;;;;;5021590;28;20044;-72
2022/06/29 10:47:47;;;;;;;0.20;0.20;;;;;;;;;;5034726;28;20585;-71
2022/06/29 10:50:18;;;;;;;0.20;0.20;;;;;;;;;;5024310;28;20534;-71
2022/06/29 10:52:44;;;;;;;0.10;0.10;;;;;;;;;;5026521;28;20029;-72
2022/06/29 10:55:11;;;;;;;0.10;0.10;;;;;;;;;;5013840;28;20393;-72
2022/06/29 10:57:38;;;;;;;0.10;0.10;;;;;;;;;;5024350;28;20053;-72
2022/06/29 11:00:09;;;;;;;0.13;0.13;;;;;;;;;;5024972;28;20034;-70
2022/06/29 11:02:38;;;;;;;0.10;0.10;;;;;;;;;;5014592;28;20129;-70
2022/06/29 11:05:04;;;;;;;0.10;0.10;;;;;;;;;;5014889;28;20073;-70
2022/06/29 11:12:01;;;;;;;0.20;0.20;;;;;;;;;;5002507;28;20046;-71
2022/06/29 11:13:29;;;;;;;0.10;0.10;;;;;;;;;;5015231;28;20448;-70
2022/06/29 11:15:55;;;;;;;;;;;;;;;;;;5012546;28;20042;-71
2022/06/29 11:18:23;;;;;;;0.10;0.10;;;;;;;;;;5015539;28;19999;-71
2022/06/29 11:20:50;;;;;;;0.20;0.20;;;;;;;;;;5002716;28;20042;-69
2022/06/29 11:23:17;;;;;;;0.10;0.10;;;;;;;;;;4999839;28;20122;-69
2022/06/29 11:25:47;;;;;;;0.10;0.10;;;;;;;;;;4998928;28;20073;-70
2022/06/29 11:28:14;;;;;;;0.20;0.20;;;;;;;;;;4998805;28;20046;-71
2022/06/29 11:30:40;;;;;;;0.10;0.10;;;;;;;;;;4998371;28;20088;-71
2022/06/29 11:33:11;;;;;;;0.60;0.60;;;;;;;;;;5017975;28;20570;-71
2022/06/29 11:35:42;;;;;;;0.17;0.17;;;;;;;;;;5017205;28;20050;-70
2022/06/29 11:38:08;;;;;;;0.40;0.40;;;;;;;;;;5017091;28;20050;-69
2022/06/29 11:40:42;;;;;;;0.13;0.13;;;;;;;;;;5026040;28;20049;-69
2022/06/29 11:43:12;;;;;;;0.68;0.28;;;;;;;;;;5016885;28;20046;-69
2022/06/29 11:45:45;;;;;;;0.22;0.17;;;;;;;;;;5016816;28;20041;-70
2022/06/29 11:48:12;;;;;;;0.55;0.55;;;;;;;;;;5017551;28;20042;-69
2022/06/29 11:50:45;;;;;;;0.20;0.20;;;;;;;;;;5017213;28;20073;-69
2022/06/29 11:53:13;;;;;;;0.20;0.20;;;;;;;;;;5017416;28;20481;-69
2022/06/29 11:55:44;;;;;;;0.20;0.20;;;;;;;;;;5017148;28;20038;-69
2022/06/29 11:58:10;;;;;;;;;;;;;;;;;;5020873;28;20076;-70
2022/06/29 12:00:37;;;;;;;;;;;;;;;;;;5026688;28;19909;-71
2022/06/29 12:03:03;;;;;;;;;;;;;;;;;;5024723;28;19910;-69
2022/06/29 12:05:28;;;;;;;;;;;;;;;;;;5036660;28;20379;-71
2022/06/29 12:07:54;;;;;;;;;;;;;;;;;;5037530;28;19909;-70
2022/06/29 12:10:21;;;;;;;;;;;;;;;;;;5033022;28;20371;-69
2022/06/29 12:12:47;;;;;;;;;;;;;;;;;;5036618;28;19913;-70
2022/06/29 12:15:14;;;;;;;;;;;;;;;;;;5024335;28;19916;-70
2022/06/29 12:17:40;;;;;;;;;;;;;;;;;;5015632;28;20295;-70
2022/06/29 12:20:06;;;;;;;;;;;;;;;;;;5015598;28;19910;-70
2022/06/29 12:22:32;;;;;;;;;;;;;;;;;;5017129;28;19951;-69
2022/06/29 12:24:58;;;;;;;;;;;;;;;;;;5017327;28;19999;-70
2022/06/29 12:27:24;;;;;;;;;;;;;;;;;;5017275;28;19917;-70
2022/06/29 12:29:50;;;;;;;;;;;;;;;;;;5026367;28;19916;-70
2022/06/29 12:32:16;;;;;;;;;;;;;;;;;;5025204;28;19910;-70
2022/06/29 12:34:42;;;;;;;;;;;;;;;;;;5026474;28;19917;-70
2022/06/29 12:37:08;;;;;;;;;;;;;;;;;;5017140;28;19922;-69
2022/06/29 12:39:34;;;;;;;;;;;;;;;;;;5034831;28;19955;-70
2022/06/29 12:42:00;;;;;;;;;;;;;;;;;;5035650;28;20004;-70
2022/06/29 12:44:26;;;;;;;;;;;;;;;;;;5025855;28;19909;-70
2022/06/29 12:46:52;;;;;;;;;;;;;;;;;;5037123;28;19954;-69
2022/06/29 12:49:18;;;;;;;;;;;;;;;;;;5022184;28;19909;-70
2022/06/29 12:51:45;;;;;;;;;;;;;;;;;;5028837;28;19916;-69
2022/06/29 12:54:11;;;;;;;;;;;;;;;;;;5017454;28;19910;-70
2022/06/29 12:56:37;;;;;;;;;;;;;;;;;;5017008;28;19948;-70
2022/06/29 12:59:03;;;;;;;;;;;;;;;;;;5017112;28;19916;-70
2022/06/29 13:01:29;;;;;;;;;;;;;;;;;;5017071;28;19917;-70
2022/06/29 13:03:55;;;;;;;;;;;;;;;;;;5017342;28;20341;-70
2022/06/29 13:06:21;;;;;;;;;;;;;;;;;;5016260;28;20379;-70
2022/06/29 13:08:47;;;;;;;;;;;;;;;;;;5018946;28;19924;-70
2022/06/29 13:11:13;;;;;;;;;;;;;;;;;;5024908;28;20327;-70
2022/06/29 13:13:40;;;;;;;;;;;;;;;;;;5023402;28;19975;-70
2022/06/29 13:16:07;;;;;;;;;;;;;;;;;;5022263;28;19921;-70
2022/06/29 13:18:33;;;;;;;;;;;;;;;;;;5029384;28;20423;-70
2022/06/29 13:20:59;;;;;;;;;;;;;;;;;;5036705;28;20362;-70
2022/06/29 13:23:25;;;;;;;;;;;;;;;;;;5012977;28;19910;-70
2022/06/29 13:25:51;;;;;;;;;;;;;;;;;;4997335;28;19910;-69
2022/06/29 13:28:17;;;;;;;;;;;;;;;;;;5001115;28;20426;-69
2022/06/29 13:30:43;;;;;;;;;;;;;;;;;;5014914;28;19913;-70
2022/06/29 13:33:09;;;;;;;;;;;;;;;;;;5015795;28;19916;-70
2022/06/29 13:35:35;;;;;;;;;;;;;;;;;;5024386;28;20275;-70
2022/06/29 13:38:02;;;;;;;;;;;;;;;;;;5018313;28;20431;-70
2022/06/29 13:43:10;;;;;;;;;;;;;;;;;;5015615;28;19909;-70
2022/06/29 13:45:39;;;;;;;;;;;;;;;;;;5013573;28;19910;-70
2022/06/29 13:48:05;;;;;;;;;;;;;;;;;;5010540;28;19916;-70
2022/06/29 13:50:32;;;;;;;;;;;;;;;;;;5015362;28;19910;-69
2022/06/29 13:52:58;;;;;;;;;;;;;;;;;;5014106;28;19920;-69
2022/06/29 13:55:24;;;;;;;;;;;;;;;;;;5014358;28;19916;-69
2022/06/29 13:57:50;;;;;;;;;;;;;;;;;;5014691;28;20004;-69
2022/06/29 14:00:18;;;;;;;;;;;;;;;;;;5014708;28;20368;-69
2022/06/29 14:02:44;;;;;;;;;;;;;;;;;;5011861;28;19993;-69
2022/06/29 14:05:10;;;;;;;;;;;;;;;;;;5014778;28;20000;-69
2022/06/29 14:07:36;;;;;;;;;;;;;;;;;;5015514;28;19910;-69
2022/06/29 14:10:02;;;;;;;;;;;;;;;;;;5015806;28;19995;-69
2022/06/29 14:12:28;;;;;;;;;;;;;;;;;;5015147;28;19909;-69
2022/06/29 14:14:54;;;;;;;;;;;;;;;;;;5032279;28;19916;-69
2022/06/29 14:17:20;;;;;;;;;;;;;;;;;;5035025;28;20364;-69
2022/06/29 14:19:46;;;;;;;;;;;;;;;;;;5049820;28;19994;-69
2022/06/29 14:22:12;;;;;;;;;;;;;;;;;;5026958;28;19924;-69
2022/06/29 14:24:39;;;;;;;;;;;;;;;;;;5035031;28;19909;-69
2022/06/29 14:27:05;;;;;;;;;;;;;;;;;;5035141;28;19924;-69
2022/06/29 14:29:30;;;;;;;;;;;;;;;;;;5035896;28;20295;-69
2022/06/29 14:31:57;;;;;;;;;;;;;;;;;;5034958;28;19979;-69
2022/06/29 14:34:23;;;;;;;;;;;;;;;;;;5033457;28;19951;-69
2022/06/29 14:36:49;;;;;;;;;;;;;;;;;;5033442;28;19917;-69
2022/06/29 14:39:15;;;;;;;;;;;;;;;;;;5034141;28;19916;-69
2022/06/29 14:41:41;;;;;;;;;;;;;;;;;;5028658;28;20368;-69
2022/06/29 14:44:07;;;;;;;;;;;;;;;;;;5015301;28;20280;-70
2022/06/29 14:46:34;;;;;;;;;;;;;;;;;;5015454;28;19982;-69
2022/06/29 14:49:00;;;;;;;;;;;;;;;;;;5033713;28;19955;-69
2022/06/29 14:51:26;;;;;;;;;;;;;;;;;;5034187;28;19913;-69
2022/06/29 14:53:52;;;;;;;;;;;;;;;;;;5026713;28;19909;-69
2022/06/29 14:56:19;;;;;;;;;;;;;;;;;;5034640;28;19917;-70
2022/06/29 14:58:45;;;;;;;;;;;;;;;;;;5034814;28;19936;-70
2022/06/29 15:01:11;;;;;;;;;;;;;;;;;;5021196;28;20241;-69
2022/06/29 15:03:38;;;;;;;;;;;;;;;;;;5015788;28;19913;-70
2022/06/29 15:06:05;;;;;;;;;;;;;;;;;;5015721;28;19913;-69
2022/06/29 15:08:31;;;;;;;;;;;;;;;;;;5015388;28;19963;-70
2022/06/29 15:10:57;;;;;;;;;;;;;;;;;;5015265;28;19980;-70
2022/06/29 15:13:23;;;;;;;;;;;;;;;;;;5015236;28;19909;-70
2022/06/29 15:15:49;;;;;;;;;;;;;;;;;;5015956;28;20357;-70
2022/06/29 15:18:15;;;;;;;;;;;;;;;;;;5014830;28;19917;-70
2022/06/29 15:20:41;;;;;;;;;;;;;;;;;;5014422;28;19909;-70
2022/06/29 15:23:07;;;;;;;;;;;;;;;;;;5015215;28;19913;-70
2022/06/29 15:25:33;;;;;;;;;;;;;;;;;;5014636;28;19956;-70
2022/06/29 15:27:59;;;;;;;;;;;;;;;;;;5015356;28;19921;-70